Time;durP1;ratioP1;P1;durP2;ratioP2;P2;SDS_P1;SDS_P2;PMS_P1;PMS_P2;Temp;Humidity;BMP_temperature;BMP_pressure;BME280_temperature;BME280_humidity;BME280_pressure;Samples;Min_cycle;Max_cycle;Signal;HPM_P1;HPM_P2
2021/10/05 00:01:43;;;;;;;0.00;0.00;;;;;;;;;;5038362;28;20604;-66
2021/10/05 00:04:12;;;;;;;0.07;0.07;;;;;;;;;;5039415;28;20253;-64
2021/10/05 00:06:39;;;;;;;0.00;0.00;;;;;;;;;;5038647;28;20227;-64
2021/10/05 00:09:07;;;;;;;0.00;0.00;;;;;;;;;;5039679;28;20196;-66
2021/10/05 00:11:34;;;;;;;0.10;0.10;;;;;;;;;;5038931;28;20222;-65
2021/10/05 00:14:02;;;;;;;0.00;0.00;;;;;;;;;;5039763;28;20704;-67
2021/10/05 00:16:29;;;;;;;0.00;0.00;;;;;;;;;;5038172;28;20577;-64
2021/10/05 00:18:57;;;;;;;0.00;0.00;;;;;;;;;;5040508;28;20196;-65
2021/10/05 00:21:26;;;;;;;0.00;0.00;;;;;;;;;;5040192;28;20238;-65
2021/10/05 00:23:53;;;;;;;0.00;0.00;;;;;;;;;;5038495;28;20207;-64
2021/10/05 00:26:20;;;;;;;0.03;0.03;;;;;;;;;;5040545;28;20211;-67
2021/10/05 00:28:48;;;;;;;0.10;0.10;;;;;;;;;;5038559;28;20538;-66
2021/10/05 00:31:15;;;;;;;0.53;0.27;;;;;;;;;;5037986;28;20207;-67
2021/10/05 00:33:43;;;;;;;0.10;0.10;;;;;;;;;;5041251;28;20676;-64
2021/10/05 00:36:10;;;;;;;0.00;0.00;;;;;;;;;;5039966;28;20215;-65
2021/10/05 00:38:39;;;;;;;0.00;0.00;;;;;;;;;;5039687;28;20673;-66
2021/10/05 00:41:06;;;;;;;0.03;0.03;;;;;;;;;;5039608;28;20711;-65
2021/10/05 00:43:34;;;;;;;0.10;0.10;;;;;;;;;;5039984;28;20927;-64
2021/10/05 00:46:01;;;;;;;0.00;0.00;;;;;;;;;;5039168;28;20543;-65
2021/10/05 00:48:29;;;;;;;0.00;0.00;;;;;;;;;;5046290;28;20566;-64
2021/10/05 00:50:56;;;;;;;0.23;0.23;;;;;;;;;;5045811;28;20204;-64
2021/10/05 00:53:23;;;;;;;0.00;0.00;;;;;;;;;;5037232;28;20211;-65
2021/10/05 00:55:52;;;;;;;0.33;0.30;;;;;;;;;;5040616;28;20588;-64
2021/10/05 00:58:20;;;;;;;0.00;0.00;;;;;;;;;;5039777;28;20293;-65
2021/10/05 01:00:47;;;;;;;0.00;0.00;;;;;;;;;;5039579;28;20238;-66
2021/10/05 01:03:15;;;;;;;0.10;0.10;;;;;;;;;;5041048;28;20200;-68
2021/10/05 01:05:42;;;;;;;0.00;0.00;;;;;;;;;;5039462;28;20584;-65
2021/10/05 01:08:10;;;;;;;0.17;0.17;;;;;;;;;;5037868;28;20996;-64
2021/10/05 01:10:37;;;;;;;0.17;0.17;;;;;;;;;;5038018;28;20733;-65
2021/10/05 01:13:06;;;;;;;0.00;0.00;;;;;;;;;;5041501;28;20219;-65
2021/10/05 01:15:33;;;;;;;0.00;0.00;;;;;;;;;;5037597;28;20200;-65
2021/10/05 01:18:01;;;;;;;0.83;0.77;;;;;;;;;;5037733;28;20282;-65
2021/10/05 01:20:28;;;;;;;0.10;0.10;;;;;;;;;;5039030;28;20242;-64
2021/10/05 01:22:57;;;;;;;0.07;0.00;;;;;;;;;;5038979;28;20200;-66
2021/10/05 01:25:25;;;;;;;0.40;0.10;;;;;;;;;;5038466;28;20283;-68
2021/10/05 01:27:53;;;;;;;0.00;0.00;;;;;;;;;;5038005;28;20211;-64
2021/10/05 01:30:21;;;;;;;0.00;0.00;;;;;;;;;;5040919;28;20218;-64
2021/10/05 01:32:49;;;;;;;0.57;0.33;;;;;;;;;;5042816;28;20207;-65
2021/10/05 01:35:18;;;;;;;0.10;0.07;;;;;;;;;;5038443;28;20898;-65
2021/10/05 01:37:46;;;;;;;0.00;0.00;;;;;;;;;;5037842;28;20957;-66
2021/10/05 01:40:15;;;;;;;0.30;0.30;;;;;;;;;;5037765;28;20246;-65
2021/10/05 01:42:42;;;;;;;0.00;0.00;;;;;;;;;;5037517;28;20206;-66
2021/10/05 01:45:10;;;;;;;0.00;0.00;;;;;;;;;;5040092;28;20212;-65
2021/10/05 01:47:39;;;;;;;0.10;0.10;;;;;;;;;;5037481;28;20207;-65
2021/10/05 01:50:07;;;;;;;0.00;0.00;;;;;;;;;;5039181;28;20665;-66
2021/10/05 01:52:36;;;;;;;0.00;0.00;;;;;;;;;;5037986;28;20216;-66
2021/10/05 01:55:04;;;;;;;0.10;0.10;;;;;;;;;;5038293;28;20681;-65
2021/10/05 01:57:32;;;;;;;0.20;0.13;;;;;;;;;;5036455;28;20204;-67
2021/10/05 02:00:00;;;;;;;1.33;1.30;;;;;;;;;;5038508;28;20216;-64
2021/10/05 02:02:27;;;;;;;0.00;0.00;;;;;;;;;;5035665;28;20204;-65
2021/10/05 02:04:55;;;;;;;0.63;0.63;;;;;;;;;;5037102;28;20214;-66
2021/10/05 02:07:22;;;;;;;0.00;0.00;;;;;;;;;;5034767;28;20285;-65
2021/10/05 02:09:49;;;;;;;0.33;0.33;;;;;;;;;;5037979;28;20601;-65
2021/10/05 02:12:17;;;;;;;0.00;0.00;;;;;;;;;;5038428;28;20580;-66
2021/10/05 02:14:46;;;;;;;0.43;0.43;;;;;;;;;;5041199;28;20210;-65
2021/10/05 02:17:14;;;;;;;1.30;1.20;;;;;;;;;;5037732;28;20208;-65
2021/10/05 02:19:42;;;;;;;0.20;0.17;;;;;;;;;;5037427;28;20203;-65
2021/10/05 02:22:09;;;;;;;0.10;0.10;;;;;;;;;;5038205;28;20200;-65
2021/10/05 02:24:44;;;;;;;0.13;0.13;;;;;;;;;;5040990;28;20222;-64
2021/10/05 02:27:16;;;;;;;0.00;0.00;;;;;;;;;;5037872;28;20218;-65
2021/10/05 02:29:44;;;;;;;1.40;0.73;;;;;;;;;;5038322;28;20203;-66
2021/10/05 02:32:14;;;;;;;0.13;0.13;;;;;;;;;;5048204;28;20206;-64
2021/10/05 02:34:42;;;;;;;0.00;0.00;;;;;;;;;;5039786;28;20215;-65
2021/10/05 02:37:09;;;;;;;0.00;0.00;;;;;;;;;;5037220;28;20617;-65
2021/10/05 02:39:37;;;;;;;3.70;3.43;;;;;;;;;;5040083;28;20202;-65
2021/10/05 02:42:05;;;;;;;0.27;0.27;;;;;;;;;;5035990;28;20234;-66
2021/10/05 02:44:32;;;;;;;0.03;0.03;;;;;;;;;;5039177;28;20216;-65
2021/10/05 02:47:00;;;;;;;0.00;0.00;;;;;;;;;;5037516;28;20318;-65
2021/10/05 02:49:29;;;;;;;0.00;0.00;;;;;;;;;;5038853;28;20203;-67
2021/10/05 02:51:56;;;;;;;0.00;0.00;;;;;;;;;;5038664;28;20199;-65
2021/10/05 02:54:24;;;;;;;0.10;0.10;;;;;;;;;;5041648;28;20211;-65
2021/10/05 02:56:51;;;;;;;0.17;0.10;;;;;;;;;;5040817;28;20208;-66
2021/10/05 02:59:18;;;;;;;0.00;0.00;;;;;;;;;;5041530;28;20199;-66
2021/10/05 03:01:46;;;;;;;0.20;0.20;;;;;;;;;;5041885;28;20302;-66
2021/10/05 03:04:13;;;;;;;0.00;0.00;;;;;;;;;;5040290;28;20213;-64
2021/10/05 03:06:42;;;;;;;0.00;0.00;;;;;;;;;;5040182;28;20284;-65
2021/10/05 03:09:10;;;;;;;0.00;0.00;;;;;;;;;;5041171;28;20207;-65
2021/10/05 03:11:37;;;;;;;0.00;0.00;;;;;;;;;;5041313;28;20199;-65
2021/10/05 03:14:04;;;;;;;0.00;0.00;;;;;;;;;;5047581;28;20208;-65
2021/10/05 03:16:31;;;;;;;0.30;0.30;;;;;;;;;;5051342;28;20211;-63
2021/10/05 03:18:59;;;;;;;0.10;0.10;;;;;;;;;;5050886;28;20200;-65
2021/10/05 03:21:26;;;;;;;0.00;0.00;;;;;;;;;;5052200;28;20595;-63
2021/10/05 03:23:55;;;;;;;0.00;0.00;;;;;;;;;;5053321;28;20199;-62
2021/10/05 03:26:23;;;;;;;0.00;0.00;;;;;;;;;;5051293;28;20207;-65
2021/10/05 03:28:50;;;;;;;0.10;0.10;;;;;;;;;;5055530;28;20661;-65
2021/10/05 03:31:18;;;;;;;0.00;0.00;;;;;;;;;;5052441;28;20243;-65
2021/10/05 03:33:46;;;;;;;0.00;0.00;;;;;;;;;;5052460;28;20759;-63
2021/10/05 03:36:14;;;;;;;0.00;0.00;;;;;;;;;;5051925;28;20206;-62
2021/10/05 03:38:42;;;;;;;0.00;0.00;;;;;;;;;;5056327;28;20200;-65
2021/10/05 03:41:11;;;;;;;0.00;0.00;;;;;;;;;;5052514;28;20234;-65
2021/10/05 03:43:39;;;;;;;0.20;0.20;;;;;;;;;;5049924;28;20684;-64
2021/10/05 03:46:07;;;;;;;0.00;0.00;;;;;;;;;;5051432;28;20287;-65
2021/10/05 03:48:34;;;;;;;0.30;0.30;;;;;;;;;;5048056;28;20214;-66
2021/10/05 03:51:02;;;;;;;0.00;0.00;;;;;;;;;;5041934;28;20202;-64
2021/10/05 03:53:29;;;;;;;0.00;0.00;;;;;;;;;;5040879;28;20210;-65
2021/10/05 03:55:58;;;;;;;0.00;0.00;;;;;;;;;;5040946;28;20233;-64
2021/10/05 03:58:27;;;;;;;0.00;0.00;;;;;;;;;;5040560;28;20209;-65
2021/10/05 04:00:54;;;;;;;0.37;0.37;;;;;;;;;;5041368;28;20223;-65
2021/10/05 04:03:23;;;;;;;0.00;0.00;;;;;;;;;;5040286;28;20577;-65
2021/10/05 04:05:51;;;;;;;0.00;0.00;;;;;;;;;;5038783;28;20253;-65
2021/10/05 04:08:19;;;;;;;0.00;0.00;;;;;;;;;;5038168;28;20365;-66
2021/10/05 04:10:46;;;;;;;0.00;0.00;;;;;;;;;;5042013;28;20204;-65
2021/10/05 04:13:14;;;;;;;0.10;0.10;;;;;;;;;;5039971;28;20212;-65
2021/10/05 04:15:43;;;;;;;0.30;0.30;;;;;;;;;;5039215;28;20246;-66
2021/10/05 04:18:10;;;;;;;0.77;0.37;;;;;;;;;;5056199;28;20208;-65
2021/10/05 04:20:38;;;;;;;0.00;0.00;;;;;;;;;;5050984;28;20192;-64
2021/10/05 04:23:05;;;;;;;0.00;0.00;;;;;;;;;;5048584;28;20210;-64
2021/10/05 04:25:32;;;;;;;0.00;0.00;;;;;;;;;;5050944;28;20211;-65
2021/10/05 04:28:00;;;;;;;0.20;0.20;;;;;;;;;;5047400;28;20207;-65
2021/10/05 04:30:27;;;;;;;3.93;3.60;;;;;;;;;;5038517;28;20669;-66
2021/10/05 04:32:56;;;;;;;0.00;0.00;;;;;;;;;;5038242;28;20991;-65
2021/10/05 04:35:24;;;;;;;0.07;0.07;;;;;;;;;;5040039;28;20204;-66
2021/10/05 04:37:51;;;;;;;0.00;0.00;;;;;;;;;;5041935;28;20220;-65
2021/10/05 04:40:19;;;;;;;0.00;0.00;;;;;;;;;;5038323;28;20203;-66
2021/10/05 04:42:46;;;;;;;0.67;0.50;;;;;;;;;;5042799;28;20638;-64
2021/10/05 04:45:14;;;;;;;0.00;0.00;;;;;;;;;;5049164;28;20203;-64
2021/10/05 04:47:42;;;;;;;6.23;0.57;;;;;;;;;;5039212;28;20203;-67
2021/10/05 04:50:11;;;;;;;0.20;0.10;;;;;;;;;;5039948;28;21582;-64
2021/10/05 04:52:39;;;;;;;0.00;0.00;;;;;;;;;;5041937;28;20212;-66
2021/10/05 04:55:07;;;;;;;3.60;1.20;;;;;;;;;;5039837;28;20224;-65
2021/10/05 04:57:34;;;;;;;0.00;0.00;;;;;;;;;;5040008;28;20204;-65
2021/10/05 05:00:01;;;;;;;0.77;0.77;;;;;;;;;;5039751;28;20204;-64
2021/10/05 05:02:29;;;;;;;0.00;0.00;;;;;;;;;;5053981;28;20592;-67
2021/10/05 05:04:56;;;;;;;0.00;0.00;;;;;;;;;;5050821;28;20195;-64
2021/10/05 05:07:25;;;;;;;0.00;0.00;;;;;;;;;;5047747;28;20238;-64
2021/10/05 05:09:52;;;;;;;0.00;0.00;;;;;;;;;;5054709;28;20196;-64
2021/10/05 05:12:20;;;;;;;0.00;0.00;;;;;;;;;;5049383;28;21741;-65
2021/10/05 05:14:47;;;;;;;0.67;0.20;;;;;;;;;;5047596;28;20227;-65
2021/10/05 05:17:14;;;;;;;0.00;0.00;;;;;;;;;;5041706;28;20672;-65
2021/10/05 05:19:42;;;;;;;0.00;0.00;;;;;;;;;;5041362;28;20199;-65
2021/10/05 05:22:09;;;;;;;0.00;0.00;;;;;;;;;;5043373;28;20261;-65
2021/10/05 05:24:38;;;;;;;0.00;0.00;;;;;;;;;;5042195;28;20206;-65
2021/10/05 05:27:06;;;;;;;0.20;0.07;;;;;;;;;;5042668;28;20600;-64
2021/10/05 05:29:33;;;;;;;0.00;0.00;;;;;;;;;;5042270;28;20235;-64
2021/10/05 05:32:01;;;;;;;0.00;0.00;;;;;;;;;;5042786;28;20211;-65
2021/10/05 05:34:29;;;;;;;0.00;0.00;;;;;;;;;;5041386;28;20299;-67
2021/10/05 05:36:56;;;;;;;0.43;0.10;;;;;;;;;;5043062;28;20286;-64
2021/10/05 05:39:24;;;;;;;0.00;0.00;;;;;;;;;;5043359;28;20207;-65
2021/10/05 05:41:53;;;;;;;0.00;0.00;;;;;;;;;;5042688;28;20257;-65
2021/10/05 05:44:20;;;;;;;0.07;0.07;;;;;;;;;;5041152;28;20195;-65
2021/10/05 05:46:48;;;;;;;0.40;0.40;;;;;;;;;;5042347;28;20699;-64
2021/10/05 05:49:15;;;;;;;0.00;0.00;;;;;;;;;;5045781;28;20199;-66
2021/10/05 05:51:43;;;;;;;0.03;0.03;;;;;;;;;;5046245;28;20202;-64
2021/10/05 05:54:10;;;;;;;1.53;0.20;;;;;;;;;;5041324;28;20572;-65
2021/10/05 05:56:38;;;;;;;0.40;0.30;;;;;;;;;;5040089;28;21381;-65
2021/10/05 05:59:07;;;;;;;0.00;0.00;;;;;;;;;;5042779;28;20661;-64
2021/10/05 06:01:34;;;;;;;0.00;0.00;;;;;;;;;;5040334;28;20238;-65
2021/10/05 06:04:02;;;;;;;0.00;0.00;;;;;;;;;;5039697;28;21206;-65
2021/10/05 06:06:30;;;;;;;0.00;0.00;;;;;;;;;;5044552;28;20203;-66
2021/10/05 06:08:58;;;;;;;0.20;0.10;;;;;;;;;;5042063;28;20273;-64
2021/10/05 06:11:26;;;;;;;0.00;0.00;;;;;;;;;;5041623;28;20290;-64
2021/10/05 06:13:53;;;;;;;0.10;0.10;;;;;;;;;;5050736;28;20208;-65
2021/10/05 06:16:22;;;;;;;0.00;0.00;;;;;;;;;;5055747;28;20215;-64
2021/10/05 06:18:50;;;;;;;0.07;0.07;;;;;;;;;;5053867;28;20195;-64
2021/10/05 06:21:17;;;;;;;0.00;0.00;;;;;;;;;;5052342;28;20204;-66
2021/10/05 06:23:44;;;;;;;0.00;0.00;;;;;;;;;;5050966;28;20208;-64
2021/10/05 06:26:12;;;;;;;0.07;0.07;;;;;;;;;;5053096;28;20188;-64
2021/10/05 06:28:39;;;;;;;0.00;0.00;;;;;;;;;;5052553;28;20295;-64
2021/10/05 06:31:07;;;;;;;0.20;0.10;;;;;;;;;;5052850;28;20211;-63
2021/10/05 06:33:36;;;;;;;0.00;0.00;;;;;;;;;;5055322;28;20204;-65
2021/10/05 06:36:04;;;;;;;0.00;0.00;;;;;;;;;;5051960;28;20203;-65
2021/10/05 06:38:31;;;;;;;0.00;0.00;;;;;;;;;;5047299;28;20215;-66
2021/10/05 06:40:59;;;;;;;0.00;0.00;;;;;;;;;;5046165;28;20294;-66
2021/10/05 06:43:26;;;;;;;0.07;0.07;;;;;;;;;;5051103;28;20239;-70
2021/10/05 06:45:54;;;;;;;0.10;0.10;;;;;;;;;;5041420;28;20204;-66
2021/10/05 06:48:21;;;;;;;0.00;0.00;;;;;;;;;;5043824;28;20219;-67
2021/10/05 06:50:50;;;;;;;0.00;0.00;;;;;;;;;;5048798;28;20200;-66
2021/10/05 06:53:17;;;;;;;0.00;0.00;;;;;;;;;;5052198;28;20203;-66
2021/10/05 06:55:46;;;;;;;0.00;0.00;;;;;;;;;;5052777;28;20211;-67
2021/10/05 06:58:14;;;;;;;0.00;0.00;;;;;;;;;;5049286;28;20209;-66
2021/10/05 07:00:42;;;;;;;0.00;0.00;;;;;;;;;;5051669;28;20200;-67
2021/10/05 07:03:09;;;;;;;0.37;0.10;;;;;;;;;;5053834;28;20234;-65
2021/10/05 07:05:37;;;;;;;0.00;0.00;;;;;;;;;;5052495;28;20236;-66
2021/10/05 07:08:08;;;;;;;1.70;0.50;;;;;;;;;;5052478;28;20262;-66
2021/10/05 07:10:36;;;;;;;0.00;0.00;;;;;;;;;;5057216;28;20293;-67
2021/10/05 07:13:05;;;;;;;0.00;0.00;;;;;;;;;;5052056;28;20199;-65
2021/10/05 07:15:32;;;;;;;0.73;0.37;;;;;;;;;;5045174;28;20199;-66
2021/10/05 07:17:59;;;;;;;0.13;0.13;;;;;;;;;;5050250;28;20222;-66
2021/10/05 07:20:28;;;;;;;0.10;0.10;;;;;;;;;;5054483;28;20203;-65
2021/10/05 07:22:55;;;;;;;6.23;1.50;;;;;;;;;;5045910;28;20230;-67
2021/10/05 07:25:24;;;;;;;0.00;0.00;;;;;;;;;;5044120;28;20212;-65
2021/10/05 07:27:52;;;;;;;0.10;0.10;;;;;;;;;;5047808;28;20203;-65
2021/10/05 07:30:23;;;;;;;0.10;0.10;;;;;;;;;;5052316;28;20204;-66
2021/10/05 07:32:52;;;;;;;0.60;0.30;;;;;;;;;;5052801;28;20277;-66
2021/10/05 07:35:20;;;;;;;0.60;0.30;;;;;;;;;;5052004;28;20207;-65
2021/10/05 07:37:47;;;;;;;0.73;0.20;;;;;;;;;;5048925;28;20212;-66
2021/10/05 07:40:20;;;;;;;1.40;1.23;;;;;;;;;;5051813;28;20218;-66
2021/10/05 07:42:49;;;;;;;0.43;0.30;;;;;;;;;;5052321;28;20231;-65
2021/10/05 07:45:16;;;;;;;0.00;0.00;;;;;;;;;;5052319;28;20195;-66
2021/10/05 07:47:44;;;;;;;0.20;0.20;;;;;;;;;;5053363;28;20203;-66
2021/10/05 07:50:12;;;;;;;0.20;0.20;;;;;;;;;;5053924;28;20204;-65
2021/10/05 07:52:39;;;;;;;0.30;0.10;;;;;;;;;;5049114;28;20231;-66
2021/10/05 07:55:07;;;;;;;0.30;0.30;;;;;;;;;;5043405;28;20569;-67
2021/10/05 07:57:35;;;;;;;0.73;0.73;;;;;;;;;;5041291;28;20234;-66
2021/10/05 08:00:04;;;;;;;0.43;0.23;;;;;;;;;;5042911;28;20211;-67
2021/10/05 08:02:32;;;;;;;0.77;0.43;;;;;;;;;;5039506;28;20688;-67
2021/10/05 08:04:59;;;;;;;0.37;0.37;;;;;;;;;;5049052;28;20207;-68
2021/10/05 08:07:27;;;;;;;1.07;0.67;;;;;;;;;;5049538;28;20259;-65
2021/10/05 08:09:55;;;;;;;0.00;0.00;;;;;;;;;;5049968;28;20286;-68
2021/10/05 08:12:23;;;;;;;0.97;0.87;;;;;;;;;;5049387;28;20291;-66
2021/10/05 08:14:51;;;;;;;2.43;1.40;;;;;;;;;;5048821;28;20306;-67
2021/10/05 08:17:20;;;;;;;0.60;0.60;;;;;;;;;;5043128;28;20298;-67
2021/10/05 08:19:48;;;;;;;0.57;0.57;;;;;;;;;;5044845;28;20204;-65
2021/10/05 08:22:15;;;;;;;0.10;0.10;;;;;;;;;;5051419;28;20762;-67
2021/10/05 08:24:43;;;;;;;0.00;0.00;;;;;;;;;;5050411;28;20199;-65
2021/10/05 08:27:10;;;;;;;1.30;0.50;;;;;;;;;;5050996;28;20211;-66
2021/10/05 08:29:39;;;;;;;0.03;0.03;;;;;;;;;;5051118;28;20581;-65
2021/10/05 08:32:08;;;;;;;0.10;0.10;;;;;;;;;;5047003;28;20210;-65
2021/10/05 08:34:38;;;;;;;0.00;0.00;;;;;;;;;;5045668;28;20337;-66
2021/10/05 08:37:05;;;;;;;1.63;0.87;;;;;;;;;;5051622;28;20214;-65
2021/10/05 08:39:33;;;;;;;0.00;0.00;;;;;;;;;;5043560;28;20196;-65
2021/10/05 08:42:00;;;;;;;4.23;0.50;;;;;;;;;;5055265;28;20234;-66
2021/10/05 08:44:28;;;;;;;0.00;0.00;;;;;;;;;;5050171;28;20202;-66
2021/10/05 08:46:56;;;;;;;0.50;0.20;;;;;;;;;;5046034;28;20199;-65
2021/10/05 08:49:25;;;;;;;0.43;0.43;;;;;;;;;;5049363;28;20192;-65
2021/10/05 08:51:54;;;;;;;0.00;0.00;;;;;;;;;;5049943;28;20210;-67
2021/10/05 08:54:22;;;;;;;0.17;0.17;;;;;;;;;;5048289;28;20208;-65
2021/10/05 08:56:50;;;;;;;0.00;0.00;;;;;;;;;;5050154;28;20208;-66
2021/10/05 08:59:17;;;;;;;0.80;0.50;;;;;;;;;;5051295;28;20199;-66
2021/10/05 09:01:45;;;;;;;0.53;0.53;;;;;;;;;;5050203;28;20207;-65
2021/10/05 09:04:12;;;;;;;0.77;0.73;;;;;;;;;;5050384;28;20219;-64
2021/10/05 09:06:43;;;;;;;0.57;0.57;;;;;;;;;;5049868;28;20234;-66
2021/10/05 09:09:12;;;;;;;2.10;0.17;;;;;;;;;;5049344;28;20200;-65
2021/10/05 09:11:40;;;;;;;0.20;0.20;;;;;;;;;;5049543;28;20199;-66
2021/10/05 09:14:08;;;;;;;0.20;0.20;;;;;;;;;;5049564;28;20199;-65
2021/10/05 09:16:36;;;;;;;0.00;0.00;;;;;;;;;;5054706;28;20191;-66
2021/10/05 09:19:05;;;;;;;0.17;0.17;;;;;;;;;;5050454;28;20203;-64
2021/10/05 09:21:34;;;;;;;0.10;0.10;;;;;;;;;;5049798;28;20657;-68
2021/10/05 09:24:03;;;;;;;0.00;0.00;;;;;;;;;;5050175;28;20860;-66
2021/10/05 09:26:39;;;;;;;0.00;0.00;;;;;;;;;;5057851;28;20222;-68
2021/10/05 09:29:11;;;;;;;0.50;0.50;;;;;;;;;;5048407;28;20225;-66
2021/10/05 09:31:53;;;;;;;0.13;0.07;;;;;;;;;;5048596;28;20199;-69
2021/10/05 09:34:22;;;;;;;1.17;0.40;;;;;;;;;;5040171;28;20195;-66
2021/10/05 09:36:50;;;;;;;0.13;0.13;;;;;;;;;;5057617;28;20200;-67
2021/10/05 09:39:17;;;;;;;0.10;0.10;;;;;;;;;;5044699;28;20195;-67
2021/10/05 09:41:55;;;;;;;0.10;0.10;;;;;;;;;;5046939;28;20214;-66
2021/10/05 09:44:27;;;;;;;0.03;0.03;;;;;;;;;;5047582;28;20231;-69
2021/10/05 09:46:54;;;;;;;0.00;0.00;;;;;;;;;;5049016;28;20200;-68
2021/10/05 09:49:24;;;;;;;2.73;1.10;;;;;;;;;;5050898;28;20294;-68
2021/10/05 09:51:58;;;;;;;0.13;0.13;;;;;;;;;;5052108;28;20286;-68
2021/10/05 09:54:26;;;;;;;0.00;0.00;;;;;;;;;;5054516;28;20209;-67
2021/10/05 09:56:56;;;;;;;0.30;0.30;;;;;;;;;;5051765;28;20200;-69
2021/10/05 09:59:23;;;;;;;3.87;0.70;;;;;;;;;;5051842;28;20204;-69
2021/10/05 10:01:52;;;;;;;0.00;0.00;;;;;;;;;;5054356;28;20203;-69
2021/10/05 10:04:23;;;;;;;0.00;0.00;;;;;;;;;;5051194;28;20317;-69
2021/10/05 10:06:51;;;;;;;0.30;0.20;;;;;;;;;;5052279;28;20231;-68
2021/10/05 10:09:19;;;;;;;0.23;0.23;;;;;;;;;;5052589;28;20226;-68
2021/10/05 10:11:47;;;;;;;0.53;0.40;;;;;;;;;;5050576;28;20546;-68
2021/10/05 10:14:19;;;;;;;1.70;0.60;;;;;;;;;;5050747;28;20199;-67
2021/10/05 10:16:48;;;;;;;0.53;0.53;;;;;;;;;;5052862;28;20250;-69
2021/10/05 10:19:25;;;;;;;0.03;0.03;;;;;;;;;;5052471;28;20322;-68
2021/10/05 10:21:53;;;;;;;0.57;0.33;;;;;;;;;;5050752;28;20207;-67
2021/10/05 10:24:20;;;;;;;0.07;0.07;;;;;;;;;;5051697;28;20270;-68
2021/10/05 10:26:55;;;;;;;1.70;1.30;;;;;;;;;;5053731;28;20225;-68
2021/10/05 10:29:31;;;;;;;0.00;0.00;;;;;;;;;;5050068;28;20210;-69
2021/10/05 10:32:09;;;;;;;0.00;0.00;;;;;;;;;;5052767;28;20205;-67
2021/10/05 10:34:38;;;;;;;0.20;0.20;;;;;;;;;;5050244;28;20269;-69
2021/10/05 10:37:10;;;;;;;1.30;0.97;;;;;;;;;;5053124;28;20203;-68
2021/10/05 10:39:39;;;;;;;0.30;0.30;;;;;;;;;;5050160;28;20223;-68
2021/10/05 10:42:06;;;;;;;0.00;0.00;;;;;;;;;;5054019;28;20269;-68
2021/10/05 10:44:37;;;;;;;1.00;0.77;;;;;;;;;;5051514;28;20231;-68
2021/10/05 10:47:08;;;;;;;0.00;0.00;;;;;;;;;;5049607;28;20199;-67
2021/10/05 10:49:36;;;;;;;0.00;0.00;;;;;;;;;;5052018;28;20928;-69
2021/10/05 10:52:03;;;;;;;0.20;0.20;;;;;;;;;;5052019;28;20200;-68
2021/10/05 10:54:31;;;;;;;0.50;0.50;;;;;;;;;;5052136;28;20208;-68
2021/10/05 10:57:00;;;;;;;0.00;0.00;;;;;;;;;;5051424;28;20231;-68
2021/10/05 10:59:28;;;;;;;0.00;0.00;;;;;;;;;;5047363;28;20207;-68
2021/10/05 11:02:00;;;;;;;0.13;0.07;;;;;;;;;;5050897;28;20200;-68
2021/10/05 11:04:28;;;;;;;0.53;0.53;;;;;;;;;;5051496;28;20231;-67
2021/10/05 11:06:58;;;;;;;2.73;0.53;;;;;;;;;;5052453;28;20228;-67
2021/10/05 11:09:29;;;;;;;0.40;0.40;;;;;;;;;;5050533;28;20204;-67
2021/10/05 11:11:58;;;;;;;0.10;0.10;;;;;;;;;;5049190;28;20623;-70
2021/10/05 11:14:27;;;;;;;0.00;0.00;;;;;;;;;;5051997;28;20207;-68
2021/10/05 11:16:55;;;;;;;0.63;0.40;;;;;;;;;;5048863;28;20200;-68
2021/10/05 11:19:27;;;;;;;0.83;0.03;;;;;;;;;;5052904;28;20212;-68
2021/10/05 11:21:56;;;;;;;0.17;0.17;;;;;;;;;;5040103;28;20283;-68
2021/10/05 11:24:23;;;;;;;0.10;0.10;;;;;;;;;;5051940;28;20276;-68
2021/10/05 11:26:52;;;;;;;0.03;0.03;;;;;;;;;;5050632;28;20210;-65
2021/10/05 11:29:23;;;;;;;0.20;0.10;;;;;;;;;;5051333;28;20195;-65
2021/10/05 11:31:53;;;;;;;0.00;0.00;;;;;;;;;;5049420;28;20232;-67
2021/10/05 11:34:20;;;;;;;0.23;0.23;;;;;;;;;;5052366;28;20281;-68
2021/10/05 11:36:49;;;;;;;0.10;0.10;;;;;;;;;;5051154;28;20203;-65
2021/10/05 11:39:22;;;;;;;0.00;0.00;;;;;;;;;;5051228;28;20229;-69
2021/10/05 11:41:50;;;;;;;0.00;0.00;;;;;;;;;;5049617;28;20203;-68
2021/10/05 11:44:19;;;;;;;0.10;0.10;;;;;;;;;;5051216;28;20234;-69
2021/10/05 11:47:00;;;;;;;0.00;0.00;;;;;;;;;;5051136;28;20384;-68
2021/10/05 11:49:28;;;;;;;0.20;0.10;;;;;;;;;;5051586;28;20213;-67
2021/10/05 11:51:58;;;;;;;0.10;0.00;;;;;;;;;;5057316;28;20736;-69
2021/10/05 11:54:27;;;;;;;0.20;0.20;;;;;;;;;;5051757;28;20274;-68
2021/10/05 11:56:55;;;;;;;0.20;0.13;;;;;;;;;;5051083;28;20222;-68
2021/10/05 11:59:24;;;;;;;0.00;0.00;;;;;;;;;;5051011;28;20579;-68
2021/10/05 12:01:57;;;;;;;0.23;0.23;;;;;;;;;;5050925;28;20231;-66
2021/10/05 12:04:27;;;;;;;0.00;0.00;;;;;;;;;;5050876;28;20227;-68
2021/10/05 12:06:55;;;;;;;0.00;0.00;;;;;;;;;;5047896;28;20243;-68
2021/10/05 12:09:27;;;;;;;0.00;0.00;;;;;;;;;;5051632;28;20228;-69
2021/10/05 12:12:03;;;;;;;0.10;0.10;;;;;;;;;;5048773;28;20237;-67
2021/10/05 12:14:33;;;;;;;0.00;0.00;;;;;;;;;;5047698;28;20226;-67
2021/10/05 12:17:01;;;;;;;0.00;0.00;;;;;;;;;;5051345;28;20290;-68
2021/10/05 12:19:30;;;;;;;0.00;0.00;;;;;;;;;;5050702;28;20550;-65
2021/10/05 12:21:58;;;;;;;0.00;0.00;;;;;;;;;;5050416;28;20207;-68
2021/10/05 12:24:50;;;;;;;0.10;0.10;;;;;;;;;;5049050;28;20255;-67
2021/10/05 12:27:19;;;;;;;0.00;0.00;;;;;;;;;;5030583;28;20219;-67
2021/10/05 12:29:47;;;;;;;0.10;0.00;;;;;;;;;;5049836;28;20210;-67
2021/10/05 12:32:15;;;;;;;0.20;0.00;;;;;;;;;;5047566;28;20199;-67
2021/10/05 12:34:49;;;;;;;0.00;0.00;;;;;;;;;;5051396;28;20210;-66
2021/10/05 12:37:18;;;;;;;0.00;0.00;;;;;;;;;;5049416;28;20211;-67
2021/10/05 12:39:54;;;;;;;0.50;0.47;;;;;;;;;;5049443;28;20207;-66
2021/10/05 12:42:23;;;;;;;0.00;0.00;;;;;;;;;;5048980;28;21740;-66
2021/10/05 12:44:56;;;;;;;0.60;0.57;;;;;;;;;;5050842;28;20318;-66
2021/10/05 12:47:23;;;;;;;0.00;0.00;;;;;;;;;;5049076;28;20199;-66
2021/10/05 12:49:54;;;;;;;0.00;0.00;;;;;;;;;;5049708;28;20200;-66
2021/10/05 12:52:21;;;;;;;0.10;0.10;;;;;;;;;;5049065;28;20728;-66
2021/10/05 12:54:49;;;;;;;0.00;0.00;;;;;;;;;;5051204;28;20204;-66
2021/10/05 12:57:16;;;;;;;1.07;0.40;;;;;;;;;;5049831;28;20204;-67
2021/10/05 12:59:53;;;;;;;0.07;0.00;;;;;;;;;;5050429;28;20286;-66
2021/10/05 13:02:21;;;;;;;0.00;0.00;;;;;;;;;;5046989;28;20572;-66
2021/10/05 13:04:48;;;;;;;0.50;0.50;;;;;;;;;;5058090;28;20306;-66
2021/10/05 13:07:16;;;;;;;0.20;0.20;;;;;;;;;;5049788;28;20667;-66
2021/10/05 13:09:43;;;;;;;0.00;0.00;;;;;;;;;;5050394;28;20204;-66
2021/10/05 13:12:11;;;;;;;0.30;0.10;;;;;;;;;;5047917;28;20199;-66
2021/10/05 13:14:38;;;;;;;0.00;0.00;;;;;;;;;;5049515;28;20210;-66
2021/10/05 13:17:07;;;;;;;0.37;0.30;;;;;;;;;;5047389;28;20554;-66
2021/10/05 13:19:34;;;;;;;0.77;0.77;;;;;;;;;;5047488;28;20211;-67
2021/10/05 13:22:02;;;;;;;0.00;0.00;;;;;;;;;;5050166;28;20200;-66
2021/10/05 13:24:29;;;;;;;0.00;0.00;;;;;;;;;;5048622;28;20227;-65
2021/10/05 13:26:57;;;;;;;0.00;0.00;;;;;;;;;;5049759;28;20237;-65
2021/10/05 13:29:24;;;;;;;0.20;0.20;;;;;;;;;;5049046;28;20641;-64
2021/10/05 13:31:52;;;;;;;0.00;0.00;;;;;;;;;;5047695;28;20207;-65
2021/10/05 13:34:21;;;;;;;0.00;0.00;;;;;;;;;;5048969;28;20203;-64
2021/10/05 13:36:48;;;;;;;0.00;0.00;;;;;;;;;;5050152;28;20287;-66
2021/10/05 13:39:16;;;;;;;0.20;0.10;;;;;;;;;;5047885;28;20202;-69
2021/10/05 13:41:43;;;;;;;0.77;0.63;;;;;;;;;;5046910;28;20204;-67
2021/10/05 13:44:10;;;;;;;0.00;0.00;;;;;;;;;;5050114;28;20630;-67
2021/10/05 13:46:38;;;;;;;1.00;1.00;;;;;;;;;;5049333;28;20207;-66
2021/10/05 13:49:05;;;;;;;0.00;0.00;;;;;;;;;;5049286;28;20691;-66
2021/10/05 13:51:34;;;;;;;0.00;0.00;;;;;;;;;;5048112;28;20202;-66
2021/10/05 13:54:02;;;;;;;0.00;0.00;;;;;;;;;;5050203;28;20257;-66
2021/10/05 13:56:29;;;;;;;0.10;0.10;;;;;;;;;;5051627;28;20211;-68
2021/10/05 13:58:58;;;;;;;0.40;0.40;;;;;;;;;;5048817;28;20208;-66
2021/10/05 14:01:25;;;;;;;0.00;0.00;;;;;;;;;;5049775;28;20249;-65
2021/10/05 14:03:53;;;;;;;0.00;0.00;;;;;;;;;;5051614;28;20227;-65
2021/10/05 14:06:20;;;;;;;0.10;0.10;;;;;;;;;;5049770;28;20207;-67
2021/10/05 14:08:49;;;;;;;0.23;0.10;;;;;;;;;;5049078;28;20203;-66
2021/10/05 14:11:17;;;;;;;0.27;0.10;;;;;;;;;;5048282;28;20208;-65
2021/10/05 14:13:44;;;;;;;0.10;0.10;;;;;;;;;;5052326;28;20612;-66
2021/10/05 14:16:11;;;;;;;0.00;0.00;;;;;;;;;;5052312;28;20206;-65
2021/10/05 14:18:39;;;;;;;0.00;0.00;;;;;;;;;;5045104;28;20204;-67
2021/10/05 14:21:07;;;;;;;0.10;0.10;;;;;;;;;;5045613;28;20204;-68
2021/10/05 14:23:35;;;;;;;0.13;0.13;;;;;;;;;;5045721;28;20203;-65
2021/10/05 14:26:04;;;;;;;0.23;0.23;;;;;;;;;;5046045;28;20214;-65
2021/10/05 14:28:31;;;;;;;0.00;0.00;;;;;;;;;;5047237;28;20196;-66
2021/10/05 14:30:59;;;;;;;0.00;0.00;;;;;;;;;;5049116;28;20208;-68
2021/10/05 14:33:41;;;;;;;0.00;0.00;;;;;;;;;;5059840;28;20195;-65
2021/10/05 14:36:09;;;;;;;0.77;0.57;;;;;;;;;;5051528;28;20208;-64
2021/10/05 14:38:37;;;;;;;0.00;0.00;;;;;;;;;;5046575;28;20211;-64
2021/10/05 14:41:06;;;;;;;0.00;0.00;;;;;;;;;;5051567;28;20227;-67
2021/10/05 14:43:33;;;;;;;0.00;0.00;;;;;;;;;;5059603;28;20196;-66
2021/10/05 14:46:05;;;;;;;0.10;0.10;;;;;;;;;;5072607;28;20290;-63
2021/10/05 14:48:36;;;;;;;0.00;0.00;;;;;;;;;;5070021;28;20282;-63
2021/10/05 14:51:10;;;;;;;0.00;0.00;;;;;;;;;;5069006;28;20204;-62